createdAt,value
2023-01-23T00:00:56.412Z,81.43
2023-01-23T00:03:23.008Z,75.90
2023-01-23T00:06:04.155Z,82.63
2023-01-23T00:08:30.767Z,72.15
2023-01-23T00:10:57.751Z,74.72
2023-01-23T00:13:26.648Z,81.90
2023-01-23T00:15:53.142Z,82.38
2023-01-23T00:18:19.514Z,75.10
2023-01-23T00:20:45.871Z,85.47
2023-01-23T00:23:13.360Z,84.32
2023-01-23T00:25:39.869Z,76.15
2023-01-23T00:28:06.341Z,82.40
2023-01-23T00:30:33.555Z,108.88
2023-01-23T00:33:00.251Z,101.78
2023-01-23T00:35:26.597Z,76.35
2023-01-23T00:37:53.108Z,83.55
2023-01-23T00:40:19.865Z,80.70
2023-01-23T00:42:46.344Z,63.17
2023-01-23T00:45:12.767Z,93.03
2023-01-23T00:47:39.207Z,78.30
2023-01-23T00:50:05.859Z,72.57
2023-01-23T00:52:32.185Z,81.80
2023-01-23T00:54:58.732Z,80.03
2023-01-23T00:57:25.106Z,77.22
2023-01-23T00:59:51.443Z,81.90
2023-01-23T01:02:17.892Z,82.07
2023-01-23T01:04:44.259Z,88.28
2023-01-23T01:07:10.611Z,86.00
2023-01-23T01:09:36.936Z,74.22
2023-01-23T01:12:03.424Z,87.38
2023-01-23T01:14:29.862Z,80.13
2023-01-23T01:16:56.300Z,72.20
2023-01-23T01:19:22.610Z,72.82
2023-01-23T01:21:48.981Z,83.68
2023-01-23T01:24:15.368Z,79.80
2023-01-23T01:26:41.989Z,80.32
2023-01-23T01:29:08.364Z,88.40
2023-01-23T01:31:34.849Z,69.40
2023-01-23T01:34:01.303Z,69.13
2023-01-23T01:36:27.675Z,68.00
2023-01-23T01:38:54.015Z,68.40
2023-01-23T01:41:21.563Z,66.25
2023-01-23T01:43:47.966Z,67.20
2023-01-23T01:46:32.691Z,70.15
2023-01-23T01:49:05.931Z,55.20
2023-01-23T01:51:50.332Z,56.63
2023-01-23T01:56:53.397Z,56.67
2023-01-23T01:59:23.039Z,62.78
2023-01-23T02:01:53.550Z,66.75
2023-01-23T02:04:20.295Z,70.85
2023-01-23T02:06:46.984Z,60.45
2023-01-23T02:09:21.465Z,63.80
2023-01-23T02:11:49.346Z,54.30
2023-01-23T02:14:16.507Z,60.50
2023-01-23T02:16:50.049Z,59.90
2023-01-23T02:19:27.851Z,51.45
2023-01-23T02:22:05.357Z,57.83
2023-01-23T02:24:39.143Z,59.13
2023-01-23T02:27:05.532Z,54.90
2023-01-23T02:29:48.188Z,59.65
2023-01-23T02:32:14.613Z,56.50
2023-01-23T02:34:42.272Z,52.15
2023-01-23T02:37:09.168Z,53.92
2023-01-23T02:39:35.503Z,55.50
2023-01-23T02:42:02.937Z,51.45
2023-01-23T02:44:34.179Z,57.85
2023-01-23T02:47:03.920Z,52.45
2023-01-23T02:49:30.791Z,55.40
2023-01-23T02:51:57.255Z,53.00
2023-01-23T02:54:24.737Z,56.22
2023-01-23T02:56:51.609Z,56.08
2023-01-23T02:59:36.521Z,51.78
2023-01-23T03:02:06.081Z,50.55
2023-01-23T03:04:32.493Z,55.25
2023-01-23T03:06:59.244Z,49.50
2023-01-23T03:09:25.771Z,50.85
2023-01-23T03:11:52.280Z,49.83
2023-01-23T03:14:21.919Z,49.95
2023-01-23T03:16:51.407Z,48.33
2023-01-23T03:19:19.402Z,45.95
2023-01-23T03:21:45.883Z,57.00
2023-01-23T03:24:14.132Z,50.15
2023-01-23T03:26:42.220Z,52.05
2023-01-23T03:29:33.334Z,48.03
2023-01-23T03:31:59.995Z,46.83
2023-01-23T03:34:26.404Z,51.78
2023-01-23T03:36:52.917Z,48.30
2023-01-23T03:39:38.122Z,45.80
2023-01-23T03:42:04.488Z,45.97
2023-01-23T03:44:30.832Z,46.55
2023-01-23T03:46:57.260Z,42.75
2023-01-23T03:49:23.649Z,43.47
2023-01-23T03:51:50.017Z,42.10
2023-01-23T03:54:16.463Z,45.83
2023-01-23T03:56:42.932Z,43.05
2023-01-23T03:59:09.954Z,41.70
2023-01-23T04:01:37.028Z,44.78
2023-01-23T04:04:03.940Z,42.70
2023-01-23T04:06:30.810Z,42.85
2023-01-23T04:08:58.183Z,50.00
2023-01-23T04:11:26.331Z,41.92
2023-01-23T04:13:54.155Z,43.20
2023-01-23T04:16:22.736Z,41.15
2023-01-23T04:18:50.413Z,44.33
2023-01-23T04:21:17.703Z,42.28
2023-01-23T04:23:44.296Z,41.15
2023-01-23T04:26:10.800Z,41.13
2023-01-23T04:28:37.217Z,39.17
2023-01-23T04:31:03.847Z,38.47
2023-01-23T04:33:30.480Z,38.88
2023-01-23T04:35:59.150Z,40.88
2023-01-23T04:38:28.128Z,37.10
2023-01-23T04:40:55.286Z,39.75
2023-01-23T04:43:22.219Z,38.65
2023-01-23T04:45:54.876Z,38.53
2023-01-23T04:48:21.976Z,40.92
2023-01-23T04:50:50.009Z,36.53
2023-01-23T04:53:16.716Z,37.60
2023-01-23T04:55:43.053Z,38.45
2023-01-23T04:58:11.270Z,36.10
2023-01-23T05:00:38.190Z,37.60
2023-01-23T05:03:05.008Z,36.60
2023-01-23T05:05:31.759Z,34.10
2023-01-23T05:07:58.110Z,35.80
2023-01-23T05:10:24.477Z,33.03
2023-01-23T05:12:50.821Z,33.55
2023-01-23T05:15:17.335Z,33.30
2023-01-23T05:17:43.936Z,34.85
2023-01-23T05:20:11.077Z,34.47
2023-01-23T05:22:37.496Z,35.45
2023-01-23T05:25:04.110Z,33.20
2023-01-23T05:27:30.510Z,33.22
2023-01-23T05:29:56.824Z,35.10
2023-01-23T05:32:23.222Z,34.30
2023-01-23T05:34:49.557Z,35.65
2023-01-23T05:37:16.158Z,36.22
2023-01-23T05:39:42.616Z,37.63
2023-01-23T05:42:08.966Z,36.38
2023-01-23T05:44:35.339Z,36.25
2023-01-23T05:47:01.678Z,36.85
2023-01-23T05:49:27.989Z,36.63
2023-01-23T05:51:54.334Z,36.13
2023-01-23T05:54:20.720Z,38.15
2023-01-23T05:56:47.086Z,35.83
2023-01-23T05:59:13.400Z,35.53
2023-01-23T06:01:39.757Z,35.30
2023-01-23T06:04:06.075Z,36.28
2023-01-23T06:06:32.780Z,37.78
2023-01-23T06:09:00.331Z,36.97
2023-01-23T06:11:26.736Z,37.80
2023-01-23T06:13:53.080Z,36.22
2023-01-23T06:16:19.494Z,37.38
2023-01-23T06:18:45.876Z,36.67
2023-01-23T06:21:12.295Z,38.08
2023-01-23T06:23:38.684Z,37.85
2023-01-23T06:26:05.421Z,39.90
2023-01-23T06:28:31.928Z,39.35
2023-01-23T06:31:02.460Z,36.75
2023-01-23T06:33:29.227Z,39.55
2023-01-23T06:36:00.195Z,35.75
2023-01-23T06:38:27.984Z,35.17
2023-01-23T06:40:54.509Z,36.55
2023-01-23T06:43:21.721Z,36.70
2023-01-23T06:45:48.472Z,37.30
2023-01-23T06:48:15.151Z,38.97
2023-01-23T06:50:43.510Z,37.58
2023-01-23T06:53:15.037Z,37.83
2023-01-23T06:55:41.414Z,37.05
2023-01-23T06:58:07.854Z,37.22
2023-01-23T07:00:34.363Z,39.25
2023-01-23T07:03:03.719Z,38.97
2023-01-23T07:05:31.138Z,37.42
2023-01-23T07:07:57.856Z,35.75
2023-01-23T07:10:26.202Z,36.60
2023-01-23T07:12:52.627Z,38.72
2023-01-23T07:15:19.006Z,37.97
2023-01-23T07:17:45.517Z,36.70
2023-01-23T07:20:12.296Z,34.58
2023-01-23T07:22:38.690Z,34.20
2023-01-23T07:25:05.714Z,35.75
2023-01-23T07:27:33.102Z,35.53
2023-01-23T07:29:59.476Z,35.15
2023-01-23T07:32:29.179Z,33.88
2023-01-23T07:34:55.681Z,34.72
2023-01-23T07:37:22.247Z,33.78
2023-01-23T07:39:49.980Z,31.95
2023-01-23T07:42:16.664Z,36.25
2023-01-23T07:44:43.105Z,32.58
2023-01-23T07:47:10.833Z,31.77
2023-01-23T07:49:41.039Z,33.03
2023-01-23T07:52:07.519Z,32.20
2023-01-23T07:54:38.439Z,33.08
2023-01-23T07:57:05.002Z,30.85
2023-01-23T07:59:36.107Z,31.90
2023-01-23T08:02:02.492Z,31.75
2023-01-23T08:04:28.908Z,31.40
2023-01-23T08:06:55.294Z,34.83
2023-01-23T08:09:21.628Z,33.20
2023-01-23T08:11:50.748Z,31.20
2023-01-23T08:14:17.169Z,31.75
2023-01-23T08:16:43.765Z,31.35
2023-01-23T08:19:10.178Z,33.00
2023-01-23T08:21:36.669Z,31.88
2023-01-23T08:24:04.689Z,31.38
2023-01-23T08:26:31.097Z,31.08
2023-01-23T08:28:57.435Z,31.40
2023-01-23T08:31:23.844Z,31.80
2023-01-23T08:33:51.022Z,30.50
2023-01-23T08:36:18.589Z,31.42
2023-01-23T08:38:47.569Z,29.77
2023-01-23T08:41:14.495Z,30.48
2023-01-23T08:43:44.216Z,30.25
2023-01-23T08:46:11.561Z,29.77
2023-01-23T08:48:38.474Z,31.23
2023-01-23T08:51:25.552Z,31.25
2023-01-23T08:53:53.176Z,29.60
2023-01-23T08:56:22.179Z,33.65
2023-01-23T08:58:49.800Z,32.53
2023-01-23T09:01:21.349Z,32.00
2023-01-23T09:03:48.235Z,31.30
2023-01-23T09:06:17.656Z,36.63
2023-01-23T09:08:52.318Z,34.17
2023-01-23T09:11:19.188Z,33.92
2023-01-23T09:13:46.962Z,32.38
2023-01-23T09:16:13.554Z,32.17
2023-01-23T09:18:39.937Z,35.03
2023-01-23T09:21:11.399Z,33.35
2023-01-23T09:23:40.532Z,34.92
2023-01-23T09:26:09.771Z,33.10
2023-01-23T09:28:37.166Z,33.70
2023-01-23T09:31:07.279Z,32.20
2023-01-23T09:33:34.724Z,30.58
2023-01-23T09:36:01.833Z,33.80
2023-01-23T09:38:28.360Z,32.97
2023-01-23T09:40:57.451Z,32.15
2023-01-23T09:43:32.956Z,30.92
2023-01-23T09:46:12.734Z,30.85
2023-01-23T09:48:44.749Z,31.02
2023-01-23T09:51:53.024Z,30.80
2023-01-23T09:54:46.833Z,29.58
2023-01-23T09:57:21.075Z,26.52
2023-01-23T10:00:00.254Z,29.40
2023-01-23T10:02:34.226Z,28.83
2023-01-23T10:05:02.919Z,28.95
2023-01-23T10:07:59.970Z,28.33
2023-01-23T10:10:45.114Z,26.58
2023-01-23T10:13:22.871Z,27.08
2023-01-23T10:16:16.154Z,26.35
2023-01-23T10:19:15.476Z,26.55
2023-01-23T10:21:54.071Z,25.85
2023-01-23T10:24:45.843Z,27.48
2023-01-23T10:27:19.210Z,27.42
2023-01-23T10:29:50.000Z,25.95
2023-01-23T10:32:28.915Z,22.95
2023-01-23T10:35:02.345Z,21.58
2023-01-23T10:37:31.833Z,22.13
2023-01-23T10:40:02.728Z,20.00
2023-01-23T10:42:29.355Z,18.38
2023-01-23T10:44:55.826Z,18.75
2023-01-23T10:47:37.133Z,18.65
2023-01-23T10:50:05.990Z,18.50
2023-01-23T10:52:34.286Z,18.05
2023-01-23T10:55:00.965Z,17.90
2023-01-23T10:57:31.104Z,17.70
2023-01-23T11:00:04.054Z,18.15
2023-01-23T11:02:37.008Z,17.05
2023-01-23T11:05:46.866Z,16.83
2023-01-23T11:08:38.343Z,17.80
2023-01-23T11:11:25.119Z,16.95
2023-01-23T11:14:11.074Z,17.02
2023-01-23T11:16:38.221Z,16.13
2023-01-23T11:19:07.358Z,16.65
2023-01-23T11:21:37.880Z,16.25
2023-01-23T11:24:39.835Z,16.88
2023-01-23T11:27:13.028Z,15.60
2023-01-23T11:30:08.562Z,16.67
2023-01-23T11:32:45.286Z,15.70
2023-01-23T11:35:57.221Z,15.05
2023-01-23T11:38:30.741Z,15.23
2023-01-23T11:40:57.634Z,16.20
2023-01-23T11:43:24.375Z,14.63
2023-01-23T11:46:13.414Z,16.10
2023-01-23T11:48:48.825Z,15.30
2023-01-23T11:51:41.663Z,15.63
2023-01-23T11:54:37.340Z,15.23
2023-01-23T11:57:17.066Z,14.63
2023-01-23T12:00:10.813Z,15.48
2023-01-23T12:02:47.419Z,14.83
2023-01-23T12:06:17.713Z,16.13
2023-01-23T12:09:04.257Z,15.10
2023-01-23T12:11:57.870Z,14.40
2023-01-23T12:14:32.514Z,14.43
2023-01-23T12:17:22.490Z,14.32
2023-01-23T12:20:00.439Z,14.60
2023-01-23T12:22:29.819Z,14.10
2023-01-23T12:25:15.594Z,13.68
2023-01-23T12:27:45.058Z,14.40
2023-01-23T12:30:31.613Z,14.30
2023-01-23T12:33:37.574Z,15.48
2023-01-23T12:37:10.018Z,13.88
2023-01-23T12:40:09.864Z,14.00
2023-01-23T12:43:04.692Z,14.48
2023-01-23T12:48:35.065Z,13.23
2023-01-23T12:51:30.906Z,13.65
2023-01-23T12:54:15.392Z,14.30
2023-01-23T12:56:42.441Z,12.30
2023-01-23T12:59:16.980Z,13.10
2023-01-23T13:02:05.804Z,12.85
2023-01-23T13:05:07.864Z,12.60
2023-01-23T13:07:58.410Z,12.88
2023-01-23T13:11:31.297Z,12.70
2023-01-23T13:14:03.693Z,12.65
2023-01-23T13:16:58.218Z,12.77
2023-01-23T13:19:48.906Z,12.65
2023-01-23T13:22:27.749Z,13.48
2023-01-23T13:25:18.710Z,13.20
2023-01-23T13:27:58.606Z,13.10
2023-01-23T13:30:35.941Z,14.05
2023-01-23T13:33:08.486Z,14.20
2023-01-23T13:35:43.353Z,13.18
2023-01-23T13:38:21.959Z,13.52
2023-01-23T13:41:04.299Z,13.90
2023-01-23T13:44:04.241Z,13.60
2023-01-23T14:24:46.027Z,12.68
2023-01-23T14:27:29.418Z,13.15
2023-01-23T14:32:33.386Z,12.07
2023-01-23T14:34:59.863Z,12.18
2023-01-23T14:37:29.121Z,10.93
2023-01-23T14:39:59.795Z,10.98
2023-01-23T14:42:30.328Z,10.85
2023-01-23T14:45:00.645Z,11.68
2023-01-23T14:47:42.234Z,11.85
2023-01-23T14:50:11.161Z,12.07
2023-01-23T14:52:37.607Z,11.68
2023-01-23T14:55:29.244Z,11.35
2023-01-23T14:57:58.864Z,11.20
2023-01-23T15:00:26.523Z,10.57
2023-01-23T15:02:54.497Z,11.10
2023-01-23T15:05:29.107Z,10.48
2023-01-23T15:08:20.164Z,10.48
2023-01-23T15:10:50.390Z,10.02
2023-01-23T15:13:55.601Z,10.52
2023-01-23T15:16:24.671Z,10.43
2023-01-23T15:19:03.890Z,11.20
2023-01-23T15:21:33.680Z,11.30
2023-01-23T15:24:09.114Z,11.10
2023-01-23T15:26:37.622Z,10.93
2023-01-23T15:29:06.848Z,10.60
2023-01-23T15:31:36.126Z,11.27
2023-01-23T15:34:14.943Z,11.13
2023-01-23T15:37:01.606Z,11.30
2023-01-23T15:39:32.693Z,11.15
2023-01-23T15:42:05.244Z,11.55
2023-01-23T15:44:32.826Z,10.95
2023-01-23T15:47:03.862Z,12.10
2023-01-23T15:49:32.242Z,11.65
2023-01-23T15:52:02.440Z,11.57
2023-01-23T15:54:34.061Z,11.73
2023-01-23T15:57:07.429Z,12.40
2023-01-23T16:02:01.409Z,12.40
2023-01-23T16:04:27.782Z,11.93
2023-01-23T16:06:54.220Z,12.82
2023-01-23T16:09:30.480Z,12.73
2023-01-23T16:11:59.729Z,12.20
2023-01-23T16:14:26.722Z,11.15
2023-01-23T16:16:53.152Z,13.10
2023-01-23T16:19:19.688Z,12.70
2023-01-23T16:21:55.814Z,12.20
2023-01-23T16:24:26.926Z,12.75
2023-01-23T16:26:56.449Z,13.60
2023-01-23T16:29:32.127Z,12.68
2023-01-23T16:31:59.740Z,13.50
2023-01-23T16:34:26.601Z,13.20
2023-01-23T16:36:56.425Z,12.50
2023-01-23T16:39:26.599Z,12.75
2023-01-23T16:41:55.835Z,12.27
2023-01-23T16:44:23.910Z,12.73
2023-01-23T16:46:52.191Z,12.55
2023-01-23T16:49:19.433Z,12.05
2023-01-23T16:51:58.465Z,11.25
2023-01-23T16:54:26.208Z,11.60
2023-01-23T16:56:53.494Z,11.48
2023-01-23T16:59:30.559Z,11.40
2023-01-23T17:01:57.481Z,11.45
2023-01-23T17:04:23.887Z,12.10
2023-01-23T17:06:50.565Z,11.90
2023-01-23T17:09:17.545Z,13.23
2023-01-23T17:11:48.137Z,12.82
2023-01-23T17:14:28.828Z,11.98
2023-01-23T17:17:02.962Z,12.35
2023-01-23T17:22:00.447Z,12.65
2023-01-23T17:24:27.058Z,11.82
2023-01-23T17:26:53.520Z,13.40
2023-01-23T17:29:20.137Z,12.43
2023-01-23T17:31:48.166Z,12.40
2023-01-23T17:34:24.121Z,12.27
2023-01-23T17:36:52.769Z,12.75
2023-01-23T17:39:20.569Z,12.82
2023-01-23T17:41:47.060Z,12.82
2023-01-23T17:44:13.579Z,12.30
2023-01-23T17:46:40.015Z,12.30
2023-01-23T17:49:30.370Z,13.38
2023-01-23T17:51:58.770Z,12.85
2023-01-23T17:54:26.262Z,13.02
2023-01-23T17:56:53.315Z,13.70
2023-01-23T17:59:19.988Z,12.73
2023-01-23T18:01:47.772Z,13.45
2023-01-23T18:04:19.406Z,12.98
2023-01-23T18:06:46.373Z,14.35
2023-01-23T18:09:13.885Z,13.60
2023-01-23T18:11:42.995Z,13.52
2023-01-23T18:14:28.398Z,15.05
2023-01-23T18:16:55.355Z,16.08
2023-01-23T18:19:24.368Z,14.82
2023-01-23T18:21:53.044Z,15.07
2023-01-23T18:24:31.227Z,14.68
2023-01-23T18:26:58.849Z,15.93
2023-01-23T18:29:31.029Z,15.57
2023-01-23T18:32:31.520Z,15.80
2023-01-23T18:35:20.917Z,15.85
2023-01-23T18:38:07.715Z,13.98
2023-01-23T18:41:03.549Z,15.23
2023-01-23T18:43:44.349Z,15.43
2023-01-23T18:46:16.087Z,16.02
2023-01-23T18:48:44.164Z,15.25
2023-01-23T18:51:32.651Z,16.02
2023-01-23T18:54:27.312Z,15.70
2023-01-23T18:57:31.884Z,15.68
2023-01-23T19:00:16.675Z,15.82
2023-01-23T19:02:52.225Z,15.70
2023-01-23T19:05:25.882Z,15.88
2023-01-23T19:07:52.491Z,15.80
2023-01-23T19:10:24.202Z,16.35
2023-01-23T19:12:59.784Z,17.73
2023-01-23T19:15:32.530Z,16.48
2023-01-23T19:18:09.297Z,15.65
2023-01-23T19:20:48.322Z,15.60
2023-01-23T19:23:32.362Z,14.77
2023-01-23T19:25:58.992Z,15.13
2023-01-23T19:28:25.604Z,14.82
2023-01-23T19:30:52.233Z,16.60
2023-01-23T19:33:19.668Z,15.10
2023-01-23T19:35:47.212Z,16.23
2023-01-23T19:38:14.992Z,14.75
2023-01-23T19:40:42.296Z,15.68
2023-01-23T19:43:15.874Z,15.88
2023-01-23T19:45:46.166Z,15.52
2023-01-23T19:48:13.453Z,16.95
2023-01-23T19:50:40.491Z,16.25
2023-01-23T19:53:07.223Z,15.00
2023-01-23T19:55:35.987Z,15.35
2023-01-23T19:58:02.575Z,15.25
2023-01-23T20:00:31.918Z,15.52
2023-01-23T20:02:58.726Z,16.45
2023-01-23T20:05:26.145Z,15.27
2023-01-23T20:07:56.373Z,16.52
2023-01-23T20:10:23.100Z,16.52
2023-01-23T20:12:52.041Z,16.80
2023-01-23T20:15:22.394Z,16.08
2023-01-23T20:17:49.219Z,16.38
2023-01-23T20:20:16.282Z,15.25
2023-01-23T20:22:43.768Z,14.95
2023-01-23T20:25:13.295Z,15.82
2023-01-23T20:27:40.990Z,16.08
2023-01-23T20:30:13.130Z,14.77
2023-01-23T20:32:39.648Z,15.40
2023-01-23T20:35:06.402Z,16.00
2023-01-23T20:37:32.803Z,14.85
2023-01-23T20:39:59.335Z,15.57
2023-01-23T20:42:25.709Z,15.43
2023-01-23T20:44:52.202Z,15.65
2023-01-23T20:47:18.618Z,15.15
2023-01-23T20:49:44.935Z,15.73
2023-01-23T20:52:29.890Z,16.00
2023-01-23T20:54:56.360Z,15.30
2023-01-23T20:57:22.758Z,15.52
2023-01-23T20:59:49.186Z,15.80
2023-01-23T21:02:29.178Z,15.25
2023-01-23T21:04:55.761Z,16.13
2023-01-23T21:07:22.591Z,15.38
2023-01-23T21:09:51.197Z,15.93
2023-01-23T21:12:17.719Z,16.65
2023-01-23T21:14:44.093Z,14.85
2023-01-23T21:17:10.695Z,16.35
2023-01-23T21:19:38.925Z,16.13
2023-01-23T21:22:07.130Z,15.20
2023-01-23T21:24:36.026Z,16.08
2023-01-23T21:27:04.411Z,16.05
2023-01-23T21:29:32.538Z,15.05
2023-01-23T21:31:59.448Z,15.57
2023-01-23T21:34:26.203Z,16.95
2023-01-23T21:36:53.073Z,15.73
2023-01-23T21:39:19.460Z,15.43
2023-01-23T21:41:45.944Z,16.50
2023-01-23T21:44:12.929Z,16.55
2023-01-23T21:46:39.584Z,15.93
2023-01-23T21:49:08.834Z,15.73
2023-01-23T21:51:35.379Z,15.32
2023-01-23T21:54:01.811Z,16.65
2023-01-23T21:56:28.248Z,15.07
2023-01-23T21:58:55.262Z,16.52
2023-01-23T22:01:42.201Z,15.45
2023-01-23T22:04:15.278Z,14.95
2023-01-23T22:06:43.194Z,15.63
2023-01-23T22:09:13.792Z,14.57
2023-01-23T22:11:45.430Z,15.07
2023-01-23T22:14:12.311Z,14.60
2023-01-23T22:16:54.570Z,15.05
2023-01-23T22:19:25.568Z,14.65
2023-01-23T22:21:58.609Z,15.18
2023-01-23T22:24:25.565Z,15.20
2023-01-23T22:26:56.314Z,15.70
2023-01-23T22:29:25.179Z,15.30
2023-01-23T22:31:56.034Z,15.52
2023-01-23T22:34:22.741Z,15.68
2023-01-23T22:36:49.336Z,16.35
2023-01-23T22:39:21.140Z,14.68
2023-01-23T22:41:50.346Z,15.10
2023-01-23T22:44:17.420Z,13.95
2023-01-23T22:46:44.262Z,13.98
2023-01-23T22:49:11.034Z,14.55
2023-01-23T22:51:37.691Z,13.15
2023-01-23T22:54:07.068Z,13.88
2023-01-23T22:56:33.496Z,14.93
2023-01-23T22:59:01.204Z,14.02
2023-01-23T23:01:28.131Z,14.43
2023-01-23T23:03:57.745Z,14.82
2023-01-23T23:06:24.588Z,14.57
2023-01-23T23:08:51.103Z,14.00
2023-01-23T23:11:20.373Z,14.40
2023-01-23T23:13:47.614Z,14.23
2023-01-23T23:16:20.765Z,14.23
2023-01-23T23:18:49.063Z,14.40
2023-01-23T23:21:18.220Z,14.77
2023-01-23T23:23:44.763Z,15.32
2023-01-23T23:26:12.541Z,15.75
2023-01-23T23:28:39.804Z,15.30
2023-01-23T23:31:07.707Z,14.55
2023-01-23T23:33:34.144Z,15.27
2023-01-23T23:36:00.483Z,15.25
2023-01-23T23:38:26.888Z,15.20
2023-01-23T23:40:58.351Z,14.35
2023-01-23T23:43:25.472Z,15.40
2023-01-23T23:45:57.202Z,15.23
2023-01-23T23:48:24.150Z,15.07
2023-01-23T23:50:51.039Z,15.20
2023-01-23T23:53:17.748Z,15.73
2023-01-23T23:55:44.484Z,16.13
2023-01-23T23:58:10.944Z,15.30
